Time;durP1;ratioP1;P1;durP2;ratioP2;P2;SDS_P1;SDS_P2;PMS_P1;PMS_P2;Temp;Humidity;BMP_temperature;BMP_pressure;BME280_temperature;BME280_humidity;BME280_pressure;Samples;Min_cycle;Max_cycle;Signal;HPM_P1;HPM_P2
2023/10/20 04:01:29;;;;;;;;;;;14.60;99.90;;;;;;5501936;23;19926;-69
2023/10/20 04:03:55;;;;;;;;;;;14.60;99.90;;;;;;5036005;28;19999;-69
2023/10/20 04:06:22;;;;;;;;;;;14.60;99.90;;;;;;5028768;28;19920;-69
2023/10/20 04:08:47;;;;;;;;;;;14.50;99.90;;;;;;5016666;28;19910;-69
2023/10/20 04:11:12;;;;;;;;;;;14.50;99.90;;;;;;5007769;28;19961;-69
2023/10/20 04:16:13;;;;;;;;;;;14.60;99.90;;;;;;4999804;23;20277;-68
2023/10/20 04:18:42;;;;;;;;;;;14.60;99.90;;;;;;4977228;28;19918;-68
2023/10/20 04:21:08;;;;;;;;;;;14.60;99.90;;;;;;4981584;28;19910;-69
2023/10/20 04:23:34;;;;;;;;;;;14.60;99.90;;;;;;4989155;28;19957;-69
2023/10/20 04:26:00;;;;;;;;;;;14.70;99.90;;;;;;4988796;28;19918;-68
2023/10/20 04:28:44;;;;;;;;;;;14.60;99.90;;;;;;4980179;28;19910;-68
2023/10/20 04:44:59;;;;;;;;;;;14.70;99.90;;;;;;4978623;28;20300;-72
2023/10/20 04:54:50;;;;;;;;;;;14.70;99.90;;;;;;4964257;28;19922;-70
2023/10/20 05:07:58;;;;;;;;;;;14.60;99.90;;;;;;4939017;29;19911;-70
2023/10/20 05:10:24;;;;;;;;;;;14.60;99.90;;;;;;4938667;29;19910;-68
2023/10/20 05:12:50;;;;;;;;;;;14.60;99.90;;;;;;4938894;29;19911;-68
2023/10/20 05:15:16;;;;;;;;;;;14.70;99.90;;;;;;4959114;28;19918;-68
2023/10/20 05:17:41;;;;;;;;;;;14.70;99.90;;;;;;4975285;28;20012;-69
2023/10/20 05:20:13;;;;;;;;;;;14.70;99.90;;;;;;4976833;28;20286;-68
2023/10/20 05:22:41;;;;;;;;;;;14.70;99.90;;;;;;4976908;28;20294;-69
2023/10/20 05:25:08;;;;;;;;;;;14.80;99.90;;;;;;4976398;28;19914;-69
2023/10/20 05:27:33;;;;;;;;;;;14.80;99.90;;;;;;4976439;28;20258;-68
2023/10/20 05:29:58;;;;;;;;;;;14.70;99.90;;;;;;4976099;28;19917;-68
2023/10/20 05:32:24;;;;;;;;;;;14.70;99.90;;;;;;4976405;28;19917;-69
2023/10/20 05:34:54;;;;;;;;;;;14.70;99.90;;;;;;4976595;28;19961;-67
2023/10/20 05:37:22;;;;;;;;;;;14.70;99.90;;;;;;4975228;28;19916;-68
2023/10/20 05:39:48;;;;;;;;;;;14.70;99.90;;;;;;4976312;28;19910;-68
2023/10/20 05:42:13;;;;;;;;;;;14.70;99.90;;;;;;4976668;28;20391;-68
2023/10/20 05:44:48;;;;;;;;;;;14.70;99.90;;;;;;4976013;28;19968;-68
2023/10/20 05:47:13;;;;;;;;;;;14.70;99.90;;;;;;4977339;28;19910;-68
2023/10/20 05:49:39;;;;;;;;;;;14.70;99.90;;;;;;4976355;28;19917;-68
2023/10/20 05:52:05;;;;;;;;;;;14.70;99.90;;;;;;4976196;28;20005;-68
2023/10/20 05:54:31;;;;;;;;;;;14.60;99.90;;;;;;4976497;28;20044;-67
2023/10/20 05:56:57;;;;;;;;;;;14.60;99.90;;;;;;4976510;28;19945;-68
2023/10/20 05:59:22;;;;;;;;;;;14.60;99.90;;;;;;4974419;28;20552;-68
2023/10/20 06:01:47;;;;;;;;;;;14.60;99.90;;;;;;4975786;28;19917;-67
2023/10/20 06:04:13;;;;;;;;;;;14.60;99.90;;;;;;4974193;28;19914;-68
2023/10/20 06:06:39;;;;;;;;;;;14.50;99.90;;;;;;4975796;28;19910;-68
2023/10/20 06:09:06;;;;;;;;;;;14.50;99.90;;;;;;4976070;28;19914;-68
2023/10/20 06:11:32;;;;;;;;;;;14.50;99.90;;;;;;4975992;28;20453;-68
2023/10/20 06:13:57;;;;;;;;;;;14.50;99.90;;;;;;4975739;28;19949;-68
2023/10/20 06:16:24;;;;;;;;;;;14.50;99.90;;;;;;4975440;28;20376;-69
2023/10/20 06:18:49;;;;;;;;;;;14.40;99.90;;;;;;4975445;28;20292;-69
2023/10/20 06:21:16;;;;;;;;;;;14.40;99.90;;;;;;4975465;28;19917;-68
2023/10/20 06:23:42;;;;;;;;;;;14.40;99.90;;;;;;4975504;28;20335;-68
2023/10/20 06:26:08;;;;;;;;;;;14.40;99.90;;;;;;4975223;28;19918;-69
2023/10/20 06:28:34;;;;;;;;;;;14.40;99.90;;;;;;4976020;28;19910;-68
2023/10/20 06:31:21;;;;;;;;;;;14.40;99.90;;;;;;4975042;28;19910;-68
2023/10/20 06:33:48;;;;;;;;;;;14.40;99.90;;;;;;4975334;28;20389;-68
2023/10/20 06:36:20;;;;;;;;;;;14.40;99.90;;;;;;4975121;28;20273;-68
2023/10/20 06:38:45;;;;;;;;;;;14.40;99.90;;;;;;4975334;28;19914;-68
2023/10/20 06:41:13;;;;;;;;;;;14.40;99.90;;;;;;4975030;28;19918;-68
2023/10/20 06:43:39;;;;;;;;;;;14.50;99.90;;;;;;4975197;28;19910;-68
2023/10/20 06:46:05;;;;;;;;;;;14.40;99.90;;;;;;4974617;28;20394;-68
2023/10/20 06:48:30;;;;;;;;;;;14.50;99.90;;;;;;4975192;28;19942;-68
2023/10/20 06:50:56;;;;;;;;;;;14.50;99.90;;;;;;4974982;28;20005;-67
2023/10/20 06:53:21;;;;;;;;;;;14.50;99.90;;;;;;4975108;28;19925;-67
2023/10/20 06:55:47;;;;;;;;;;;14.50;99.90;;;;;;4974901;28;19916;-68
2023/10/20 06:58:13;;;;;;;;;;;14.60;99.90;;;;;;4974743;28;20400;-68
2023/10/20 07:00:38;;;;;;;;;;;14.50;99.90;;;;;;4974808;28;19911;-68
2023/10/20 07:03:04;;;;;;;;;;;14.50;99.90;;;;;;4975008;28;19910;-68
2023/10/20 07:05:31;;;;;;;;;;;14.60;99.90;;;;;;4974947;28;20009;-69
2023/10/20 07:07:59;;;;;;;;;;;14.60;99.90;;;;;;4974803;28;19910;-68
2023/10/20 07:10:25;;;;;;;;;;;14.50;99.90;;;;;;4974766;28;19917;-68
2023/10/20 07:12:51;;;;;;;;;;;14.60;99.90;;;;;;4975094;28;19933;-69
2023/10/20 07:15:16;;;;;;;;;;;14.60;99.90;;;;;;4974127;28;19922;-68
2023/10/20 07:17:42;;;;;;;;;;;14.60;99.90;;;;;;4974991;28;20304;-68
2023/10/20 07:20:08;;;;;;;;;;;14.60;99.90;;;;;;4975112;28;19911;-68
2023/10/20 07:22:33;;;;;;;;;;;14.70;99.90;;;;;;4974937;28;19917;-69
2023/10/20 07:24:59;;;;;;;;;;;14.70;99.90;;;;;;4974964;28;19925;-68
2023/10/20 07:27:25;;;;;;;;;;;14.70;99.90;;;;;;4976028;28;19917;-68
2023/10/20 07:29:50;;;;;;;;;;;14.80;99.90;;;;;;4975488;28;19989;-68
2023/10/20 07:32:17;;;;;;;;;;;14.80;99.90;;;;;;4975168;28;19922;-66
2023/10/20 07:34:42;;;;;;;;;;;14.80;99.90;;;;;;4989789;23;19926;-72
2023/10/20 07:37:07;;;;;;;;;;;14.90;99.90;;;;;;4977519;28;19918;-65
2023/10/20 07:39:34;;;;;;;;;;;15.00;99.90;;;;;;4978783;28;19964;-67
2023/10/20 07:41:59;;;;;;;;;;;15.00;99.90;;;;;;4979445;28;20041;-67
2023/10/20 07:44:25;;;;;;;;;;;15.00;99.90;;;;;;4978043;28;19968;-66
2023/10/20 07:46:50;;;;;;;;;;;15.00;99.90;;;;;;4978656;28;19917;-65
2023/10/20 07:49:16;;;;;;;;;;;15.00;99.90;;;;;;4978603;28;19920;-67
2023/10/20 07:51:41;;;;;;;;;;;15.00;99.90;;;;;;4978722;28;20364;-66
2023/10/20 07:54:10;;;;;;;;;;;15.10;99.90;;;;;;4976839;28;20000;-67
2023/10/20 07:56:36;;;;;;;;;;;15.10;99.90;;;;;;4979217;28;19910;-67
2023/10/20 07:59:01;;;;;;;;;;;15.20;99.90;;;;;;4979323;28;20005;-67
2023/10/20 08:01:27;;;;;;;;;;;15.20;99.90;;;;;;4979564;28;19921;-67
2023/10/20 08:03:53;;;;;;;;;;;15.20;99.90;;;;;;4980769;28;20030;-72
2023/10/20 08:06:19;;;;;;;;;;;15.20;99.90;;;;;;4986132;28;19917;-71
2023/10/20 08:08:44;;;;;;;;;;;15.20;99.90;;;;;;4983017;28;19917;-71
2023/10/20 08:11:10;;;;;;;;;;;15.10;99.90;;;;;;4978585;28;19910;-71
2023/10/20 08:13:37;;;;;;;;;;;15.10;99.90;;;;;;4978434;28;20335;-71
2023/10/20 08:16:04;;;;;;;;;;;15.10;99.90;;;;;;4976654;28;19914;-70
2023/10/20 08:18:33;;;;;;;;;;;15.10;99.90;;;;;;4978274;28;19910;-70
2023/10/20 08:21:02;;;;;;;;;;;15.20;99.90;;;;;;4976444;28;19917;-70
2023/10/20 08:23:27;;;;;;;;;;;15.20;99.90;;;;;;4977595;28;19915;-71
2023/10/20 08:25:53;;;;;;;;;;;15.20;99.90;;;;;;4976126;28;19921;-70
2023/10/20 08:28:18;;;;;;;;;;;15.20;99.90;;;;;;4976451;28;20024;-70
2023/10/20 08:30:44;;;;;;;;;;;15.30;99.90;;;;;;4977051;28;19915;-71
2023/10/20 08:33:09;;;;;;;;;;;15.30;99.90;;;;;;4977510;28;19918;-71
2023/10/20 08:35:35;;;;;;;;;;;15.30;99.90;;;;;;4975706;28;19964;-70
2023/10/20 08:38:01;;;;;;;;;;;15.20;99.90;;;;;;4976124;28;20412;-71
2023/10/20 08:40:31;;;;;;;;;;;15.30;99.90;;;;;;4977106;28;19960;-71
2023/10/20 08:42:57;;;;;;;;;;;15.20;99.90;;;;;;4977292;28;20010;-71
2023/10/20 08:45:23;;;;;;;;;;;15.30;99.90;;;;;;4977142;28;19914;-71
2023/10/20 08:47:49;;;;;;;;;;;15.30;99.90;;;;;;4978556;28;19910;-70
2023/10/20 08:50:15;;;;;;;;;;;15.40;99.90;;;;;;4974525;28;20396;-71
2023/10/20 08:52:41;;;;;;;;;;;15.40;99.90;;;;;;4977124;28;19949;-70
2023/10/20 08:55:07;;;;;;;;;;;15.40;99.90;;;;;;4977268;28;19910;-71
2023/10/20 08:57:33;;;;;;;;;;;15.40;99.90;;;;;;4975902;28;19917;-71
2023/10/20 08:59:58;;;;;;;;;;;15.40;99.90;;;;;;4975709;28;19918;-71
2023/10/20 09:02:34;;;;;;;;;;;15.40;99.90;;;;;;4977147;28;19973;-71
2023/10/20 09:05:00;;;;;;;;;;;15.50;99.90;;;;;;4976530;28;20005;-71
2023/10/20 09:07:25;;;;;;;;;;;15.50;99.90;;;;;;4975827;28;19956;-71
2023/10/20 09:09:51;;;;;;;;;;;15.60;99.90;;;;;;4976257;28;19917;-71
2023/10/20 09:12:17;;;;;;;;;;;15.70;99.90;;;;;;4975730;28;19914;-71
2023/10/20 09:14:42;;;;;;;;;;;15.70;99.90;;;;;;4977826;28;20368;-72
2023/10/20 09:17:19;;;;;;;;;;;15.80;99.90;;;;;;4978726;28;19910;-71
2023/10/20 09:19:44;;;;;;;;;;;15.80;99.90;;;;;;4979497;28;19997;-71
2023/10/20 09:22:10;;;;;;;;;;;15.80;99.90;;;;;;4979888;28;19944;-71
2023/10/20 09:24:35;;;;;;;;;;;15.90;99.90;;;;;;4977654;28;19973;-71
2023/10/20 09:27:01;;;;;;;;;;;16.10;99.90;;;;;;4977043;28;20364;-69
2023/10/20 09:29:27;;;;;;;;;;;16.00;99.90;;;;;;4977729;28;19933;-72
2023/10/20 09:31:53;;;;;;;;;;;16.00;99.90;;;;;;4977043;28;19953;-71
2023/10/20 09:34:19;;;;;;;;;;;16.10;99.90;;;;;;4975313;28;19968;-72
2023/10/20 09:36:47;;;;;;;;;;;16.10;99.90;;;;;;4976967;28;20354;-71
2023/10/20 09:39:16;;;;;;;;;;;16.20;99.90;;;;;;4977034;28;19914;-70
2023/10/20 09:41:48;;;;;;;;;;;16.20;99.90;;;;;;4976854;28;19952;-70
2023/10/20 09:44:20;;;;;;;;;;;16.20;99.90;;;;;;4975994;28;19957;-70
2023/10/20 09:46:54;;;;;;;;;;;16.20;99.90;;;;;;4974828;28;19913;-72
2023/10/20 09:49:21;;;;;;;;;;;16.30;99.90;;;;;;4974666;28;19917;-72
2023/10/20 09:51:48;;;;;;;;;;;16.50;99.90;;;;;;4974818;28;19944;-71
2023/10/20 09:54:15;;;;;;;;;;;16.50;99.90;;;;;;4977029;28;19910;-71
2023/10/20 09:56:42;;;;;;;;;;;16.50;99.90;;;;;;4976166;28;20427;-71
2023/10/20 09:59:12;;;;;;;;;;;16.50;99.90;;;;;;4975798;28;20006;-71
2023/10/20 10:01:40;;;;;;;;;;;16.50;99.90;;;;;;4975952;28;19993;-71
2023/10/20 10:04:09;;;;;;;;;;;16.40;99.90;;;;;;4975420;28;20353;-71
2023/10/20 10:06:35;;;;;;;;;;;16.50;99.90;;;;;;4975605;28;19918;-71
2023/10/20 10:09:04;;;;;;;;;;;16.50;99.90;;;;;;4975499;28;20218;-72
2023/10/20 10:11:30;;;;;;;;;;;16.50;99.90;;;;;;4975614;28;19956;-71
2023/10/20 10:13:59;;;;;;;;;;;16.50;99.90;;;;;;4975204;28;19917;-70
2023/10/20 10:16:25;;;;;;;;;;;16.50;99.90;;;;;;4973891;28;20001;-68
2023/10/20 10:18:54;;;;;;;;;;;16.50;99.90;;;;;;4974982;28;20013;-68
2023/10/20 10:21:23;;;;;;;;;;;16.50;99.90;;;;;;4973958;28;19910;-68
2023/10/20 10:24:22;;;;;;;;;;;16.50;99.90;;;;;;4975403;28;19960;-68
2023/10/20 10:26:57;;;;;;;;;;;16.50;99.90;;;;;;4918953;29;20377;-67
2023/10/20 10:29:42;;;;;;;;;;;16.60;99.90;;;;;;4918764;29;19935;-67
2023/10/20 10:32:12;;;;;;;;;;;16.60;99.90;;;;;;4918508;29;19950;-68
2023/10/20 10:34:41;;;;;;;;;;;16.60;99.90;;;;;;4933833;29;20333;-68
2023/10/20 10:37:06;;;;;;;;;;;16.60;99.90;;;;;;4934478;29;19963;-67
2023/10/20 10:39:32;;;;;;;;;;;16.80;99.90;;;;;;4935019;29;20009;-68
2023/10/20 10:42:02;;;;;;;;;;;17.10;99.90;;;;;;4918562;29;19915;-68
2023/10/20 10:44:45;;;;;;;;;;;17.60;99.90;;;;;;4934660;29;19926;-68
2023/10/20 10:47:19;;;;;;;;;;;18.90;99.90;;;;;;4934254;29;19966;-69
2023/10/20 10:49:47;;;;;;;;;;;21.00;99.90;;;;;;4918321;29;19910;-69
2023/10/20 10:52:13;;;;;;;;;;;21.20;99.90;;;;;;4934076;29;20517;-69
2023/10/20 10:54:38;;;;;;;;;;;20.60;99.90;;;;;;4934693;29;19954;-69
2023/10/20 10:57:03;;;;;;;;;;;20.00;99.90;;;;;;4934464;29;19997;-69
2023/10/20 10:59:29;;;;;;;;;;;19.50;99.90;;;;;;4918422;29;19910;-69
2023/10/20 11:01:55;;;;;;;;;;;19.30;99.90;;;;;;4934511;28;20088;-70
2023/10/20 11:04:21;;;;;;;;;;;19.00;99.90;;;;;;4974975;28;20124;-70
2023/10/20 11:06:46;;;;;;;;;;;18.80;99.90;;;;;;4975141;28;19918;-72
2023/10/20 11:09:19;;;;;;;;;;;18.80;99.90;;;;;;4975999;28;20433;-71
2023/10/20 11:11:47;;;;;;;;;;;18.80;99.90;;;;;;4973563;28;20009;-72
2023/10/20 11:14:16;;;;;;;;;;;18.70;99.90;;;;;;4973315;28;20405;-71
2023/10/20 11:16:42;;;;;;;;;;;18.80;99.90;;;;;;4973626;28;19910;-71
2023/10/20 11:19:07;;;;;;;;;;;18.90;99.90;;;;;;4974664;28;20295;-72
2023/10/20 11:21:46;;;;;;;;;;;19.00;99.90;;;;;;4974886;28;19910;-71
2023/10/20 11:24:12;;;;;;;;;;;18.90;99.90;;;;;;4973739;28;19911;-72
2023/10/20 11:26:37;;;;;;;;;;;18.90;99.90;;;;;;4975039;28;20272;-71
2023/10/20 11:29:04;;;;;;;;;;;18.90;99.90;;;;;;4973617;28;19910;-71
2023/10/20 11:31:29;;;;;;;;;;;18.90;99.90;;;;;;4973809;28;19914;-72
2023/10/20 11:33:55;;;;;;;;;;;19.00;99.90;;;;;;4974191;28;19997;-73
2023/10/20 11:36:20;;;;;;;;;;;19.00;99.90;;;;;;4975124;28;19910;-73
2023/10/20 11:38:46;;;;;;;;;;;19.00;99.90;;;;;;4975077;28;19921;-70
2023/10/20 11:41:11;;;;;;;;;;;19.10;99.90;;;;;;4974970;28;19910;-70
2023/10/20 11:43:37;;;;;;;;;;;19.00;99.90;;;;;;4974968;28;19942;-69
2023/10/20 11:46:06;;;;;;;;;;;19.10;99.90;;;;;;4974938;28;20000;-69
2023/10/20 11:48:31;;;;;;;;;;;19.10;99.90;;;;;;4975526;28;19910;-71
2023/10/20 11:50:57;;;;;;;;;;;19.10;99.90;;;;;;4973469;28;19996;-69
2023/10/20 11:53:22;;;;;;;;;;;19.00;99.90;;;;;;4973792;28;19993;-70
2023/10/20 11:55:48;;;;;;;;;;;19.00;99.90;;;;;;4974950;28;20353;-70
2023/10/20 11:58:13;;;;;;;;;;;18.90;99.90;;;;;;4973379;28;19965;-70
2023/10/20 12:00:41;;;;;;;;;;;18.80;99.90;;;;;;4974679;28;19910;-71
2023/10/20 12:03:08;;;;;;;;;;;18.70;99.90;;;;;;4973318;28;19910;-71
2023/10/20 12:05:36;;;;;;;;;;;18.70;99.90;;;;;;4974429;28;19921;-72
2023/10/20 12:08:02;;;;;;;;;;;18.70;99.90;;;;;;4974725;28;19920;-70
2023/10/20 12:10:28;;;;;;;;;;;18.90;99.90;;;;;;4978672;28;19942;-70
2023/10/20 12:12:53;;;;;;;;;;;18.70;99.90;;;;;;4975704;28;19911;-70
2023/10/20 12:15:19;;;;;;;;;;;18.80;99.90;;;;;;4974259;28;19993;-70
2023/10/20 12:17:44;;;;;;;;;;;18.70;99.90;;;;;;4973170;28;19910;-69
2023/10/20 12:20:10;;;;;;;;;;;18.80;99.90;;;;;;4974257;28;19960;-71
2023/10/20 12:22:35;;;;;;;;;;;18.80;99.90;;;;;;4974649;28;19910;-69
2023/10/20 12:25:01;;;;;;;;;;;18.90;99.90;;;;;;4977587;28;19921;-69
2023/10/20 12:27:26;;;;;;;;;;;19.00;99.90;;;;;;4976349;28;19910;-68
2023/10/20 12:29:52;;;;;;;;;;;19.00;99.90;;;;;;4977815;28;19918;-68
2023/10/20 12:32:18;;;;;;;;;;;19.10;99.90;;;;;;4977823;28;20333;-68
2023/10/20 12:34:43;;;;;;;;;;;19.10;99.90;;;;;;4975872;28;19994;-68
2023/10/20 12:37:10;;;;;;;;;;;19.10;99.90;;;;;;4977302;28;19914;-68
2023/10/20 12:39:35;;;;;;;;;;;19.20;99.90;;;;;;4977240;28;19910;-68
2023/10/20 12:42:04;;;;;;;;;;;19.20;99.90;;;;;;4976408;28;19910;-68
2023/10/20 12:44:30;;;;;;;;;;;19.20;99.90;;;;;;4977114;28;20373;-68
2023/10/20 12:46:55;;;;;;;;;;;19.20;99.90;;;;;;4977322;28;19998;-68
2023/10/20 12:49:21;;;;;;;;;;;19.10;99.90;;;;;;4974960;28;19964;-70
2023/10/20 12:51:47;;;;;;;;;;;19.20;99.90;;;;;;4974124;28;19964;-67
2023/10/20 12:54:12;;;;;;;;;;;18.90;99.90;;;;;;4976807;28;20070;-68
2023/10/20 12:56:38;;;;;;;;;;;18.90;99.90;;;;;;4975908;28;19921;-67
2023/10/20 12:59:03;;;;;;;;;;;18.90;99.90;;;;;;4977495;28;20304;-68
2023/10/20 13:01:29;;;;;;;;;;;18.90;99.90;;;;;;4977061;28;20391;-67
2023/10/20 13:03:54;;;;;;;;;;;18.90;99.90;;;;;;4977143;28;19958;-68
2023/10/20 13:06:20;;;;;;;;;;;18.90;99.90;;;;;;4976615;28;19964;-67
2023/10/20 13:08:45;;;;;;;;;;;18.80;99.90;;;;;;4975586;28;19910;-68
2023/10/20 13:11:11;;;;;;;;;;;18.80;99.90;;;;;;4975388;28;19910;-68
2023/10/20 13:13:37;;;;;;;;;;;18.60;99.90;;;;;;4976721;28;19960;-67
2023/10/20 13:16:03;;;;;;;;;;;18.60;99.90;;;;;;4976097;28;20361;-68
2023/10/20 13:18:30;;;;;;;;;;;18.60;99.90;;;;;;4976457;28;21277;-67
2023/10/20 13:20:56;;;;;;;;;;;18.50;99.90;;;;;;4976512;28;19997;-68
2023/10/20 13:23:22;;;;;;;;;;;18.50;99.90;;;;;;4976278;28;19949;-67
2023/10/20 13:25:47;;;;;;;;;;;18.40;99.90;;;;;;4975076;28;20439;-68
2023/10/20 13:28:13;;;;;;;;;;;18.40;99.90;;;;;;4977248;28;19929;-67
2023/10/20 13:30:39;;;;;;;;;;;18.40;99.90;;;;;;4975220;28;19932;-68
2023/10/20 13:33:04;;;;;;;;;;;18.40;99.90;;;;;;4976474;28;20253;-68
2023/10/20 13:35:35;;;;;;;;;;;18.30;99.90;;;;;;4975283;28;20025;-68
2023/10/20 13:38:01;;;;;;;;;;;18.30;99.90;;;;;;4976506;28;20365;-68
2023/10/20 13:40:27;;;;;;;;;;;18.20;99.90;;;;;;4990681;23;20052;-68
2023/10/20 13:42:53;;;;;;;;;;;18.20;99.90;;;;;;4996226;28;20016;-68
2023/10/20 13:45:19;;;;;;;;;;;18.20;99.90;;;;;;4995682;28;19918;-68
2023/10/20 13:47:46;;;;;;;;;;;18.20;99.90;;;;;;4995610;28;20368;-67
2023/10/20 13:50:12;;;;;;;;;;;18.10;99.90;;;;;;4995634;28;19909;-67
2023/10/20 13:52:37;;;;;;;;;;;18.10;99.90;;;;;;4996086;28;19965;-67
2023/10/20 13:55:03;;;;;;;;;;;18.10;99.90;;;;;;4996053;28;20269;-67
2023/10/20 13:57:29;;;;;;;;;;;17.90;99.90;;;;;;4995993;28;19917;-67
2023/10/20 13:59:54;;;;;;;;;;;17.90;99.90;;;;;;4995507;28;19910;-69
2023/10/20 14:02:20;;;;;;;;;;;17.80;99.90;;;;;;4996352;28;19910;-68
2023/10/20 14:04:45;;;;;;;;;;;17.80;99.90;;;;;;4995568;28;19967;-68
2023/10/20 14:07:11;;;;;;;;;;;17.80;99.90;;;;;;4994169;28;19917;-68
2023/10/20 14:09:37;;;;;;;;;;;17.70;99.90;;;;;;4994875;28;19910;-68
2023/10/20 14:12:02;;;;;;;;;;;17.80;99.90;;;;;;4996143;28;19914;-69
2023/10/20 14:14:28;;;;;;;;;;;17.70;99.90;;;;;;4996259;28;19909;-69
2023/10/20 14:16:54;;;;;;;;;;;17.70;99.90;;;;;;4994921;28;19933;-68
2023/10/20 14:19:19;;;;;;;;;;;17.60;99.90;;;;;;4996299;28;19956;-67
2023/10/20 14:21:45;;;;;;;;;;;17.60;99.90;;;;;;4995548;28;20373;-68
2023/10/20 14:24:10;;;;;;;;;;;17.60;99.90;;;;;;4992640;28;19909;-68
2023/10/20 14:26:36;;;;;;;;;;;17.50;99.90;;;;;;4996777;28;19913;-68
2023/10/20 14:29:01;;;;;;;;;;;17.50;99.90;;;;;;4998138;28;19917;-68
2023/10/20 14:31:28;;;;;;;;;;;17.50;99.90;;;;;;4995224;28;19909;-68
2023/10/20 14:33:54;;;;;;;;;;;17.60;99.90;;;;;;4993844;28;20352;-68
2023/10/20 14:36:20;;;;;;;;;;;17.50;99.90;;;;;;4994883;28;19950;-68
2023/10/20 14:38:48;;;;;;;;;;;17.60;99.90;;;;;;4995019;28;19910;-69
2023/10/20 14:41:13;;;;;;;;;;;17.60;99.90;;;;;;4992858;28;20034;-68
2023/10/20 14:43:39;;;;;;;;;;;17.50;99.90;;;;;;4994790;28;19948;-68
2023/10/20 14:46:06;;;;;;;;;;;17.50;99.90;;;;;;4994304;28;20008;-67
2023/10/20 14:48:32;;;;;;;;;;;17.50;99.90;;;;;;4994445;28;20458;-68
2023/10/20 14:50:58;;;;;;;;;;;17.50;99.90;;;;;;4994551;28;19945;-67
2023/10/20 14:53:24;;;;;;;;;;;17.50;99.90;;;;;;4994937;28;19997;-68
2023/10/20 14:55:50;;;;;;;;;;;17.40;99.90;;;;;;4994639;28;19918;-67
2023/10/20 14:58:15;;;;;;;;;;;17.30;99.90;;;;;;4994622;28;20322;-69
2023/10/20 15:00:44;;;;;;;;;;;17.20;99.90;;;;;;4994892;28;20393;-68
2023/10/20 15:03:10;;;;;;;;;;;17.20;99.90;;;;;;4994306;28;19913;-69
2023/10/20 15:05:44;;;;;;;;;;;17.10;99.90;;;;;;4992813;28;19918;-69
2023/10/20 15:08:09;;;;;;;;;;;17.10;99.90;;;;;;4992939;28;19910;-69
2023/10/20 15:10:35;;;;;;;;;;;17.10;99.90;;;;;;4994016;28;19910;-69
2023/10/20 15:13:03;;;;;;;;;;;17.10;99.90;;;;;;4993070;28;20020;-68
2023/10/20 15:15:35;;;;;;;;;;;17.10;99.90;;;;;;4994158;28;19917;-68
2023/10/20 15:18:01;;;;;;;;;;;17.00;99.90;;;;;;4994328;28;19956;-69
2023/10/20 15:20:27;;;;;;;;;;;16.90;99.90;;;;;;4993150;28;19910;-68
2023/10/20 15:22:52;;;;;;;;;;;16.90;99.90;;;;;;4992937;28;19910;-67
2023/10/20 15:25:18;;;;;;;;;;;16.80;99.90;;;;;;4994049;28;20011;-67
2023/10/20 15:27:43;;;;;;;;;;;16.80;99.90;;;;;;4994269;28;19917;-70
2023/10/20 15:30:09;;;;;;;;;;;16.70;99.90;;;;;;4994144;28;20001;-68
2023/10/20 15:32:36;;;;;;;;;;;16.70;99.90;;;;;;4994372;28;19910;-68
2023/10/20 15:35:01;;;;;;;;;;;16.70;99.90;;;;;;4994298;28;19910;-68
2023/10/20 15:37:26;;;;;;;;;;;16.80;99.90;;;;;;4994683;28;19914;-68
2023/10/20 15:39:52;;;;;;;;;;;16.90;99.90;;;;;;4993019;28;19909;-68
2023/10/20 15:42:21;;;;;;;;;;;16.70;99.90;;;;;;4993741;28;19985;-69
2023/10/20 15:44:46;;;;;;;;;;;16.70;99.90;;;;;;4993273;28;19914;-69
2023/10/20 15:47:12;;;;;;;;;;;16.60;99.90;;;;;;4994716;28;19917;-70
2023/10/20 15:49:37;;;;;;;;;;;16.60;99.90;;;;;;4994629;28;20368;-71
2023/10/20 15:52:03;;;;;;;;;;;16.50;99.90;;;;;;4994518;28;19932;-68
2023/10/20 15:54:28;;;;;;;;;;;16.50;99.90;;;;;;4997339;28;19909;-69
2023/10/20 15:56:54;;;;;;;;;;;16.50;99.90;;;;;;4999503;28;19914;-67
2023/10/20 15:59:19;;;;;;;;;;;16.50;99.90;;;;;;4996653;28;19913;-67
2023/10/20 16:01:45;;;;;;;;;;;16.40;99.90;;;;;;4999116;28;19918;-67
2023/10/20 16:04:11;;;;;;;;;;;16.40;99.90;;;;;;4997797;28;19964;-68
2023/10/20 16:06:36;;;;;;;;;;;16.40;99.90;;;;;;4997988;28;19914;-69
2023/10/20 16:09:05;;;;;;;;;;;16.40;99.90;;;;;;4997149;28;20356;-69
2023/10/20 16:11:31;;;;;;;;;;;16.60;99.90;;;;;;4997250;28;20363;-70
2023/10/20 16:13:56;;;;;;;;;;;16.60;99.90;;;;;;4997919;28;19910;-70
2023/10/20 16:16:23;;;;;;;;;;;16.60;99.90;;;;;;4997651;28;19953;-70
2023/10/20 16:18:51;;;;;;;;;;;16.70;99.90;;;;;;4997573;28;20072;-69
2023/10/20 16:21:17;;;;;;;;;;;16.60;99.90;;;;;;4999049;28;20008;-70
2023/10/20 16:23:43;;;;;;;;;;;16.50;99.90;;;;;;4997610;28;19945;-70
2023/10/20 16:26:09;;;;;;;;;;;16.50;99.90;;;;;;4995802;28;19914;-70
2023/10/20 16:28:35;;;;;;;;;;;16.40;99.90;;;;;;4997326;28;20004;-70
2023/10/20 16:31:03;;;;;;;;;;;16.40;99.90;;;;;;4996052;28;19960;-68
2023/10/20 16:33:29;;;;;;;;;;;16.30;99.90;;;;;;4995850;28;19910;-71
2023/10/20 16:35:55;;;;;;;;;;;16.40;99.90;;;;;;4997311;28;20312;-68
2023/10/20 16:38:21;;;;;;;;;;;16.30;99.90;;;;;;4996056;28;19917;-69
2023/10/20 16:40:51;;;;;;;;;;;16.30;99.90;;;;;;4992700;28;19918;-71
2023/10/20 16:43:19;;;;;;;;;;;16.30;99.90;;;;;;4977968;28;20340;-69
2023/10/20 16:45:45;;;;;;;;;;;16.40;99.90;;;;;;4977323;28;19914;-70
2023/10/20 16:48:10;;;;;;;;;;;16.30;99.90;;;;;;4977355;28;20266;-68
2023/10/20 16:50:36;;;;;;;;;;;16.30;99.90;;;;;;4977562;28;20294;-69
2023/10/20 16:53:01;;;;;;;;;;;16.20;99.90;;;;;;4977442;28;19917;-69
2023/10/20 16:55:27;;;;;;;;;;;16.10;99.90;;;;;;4977493;28;20006;-68
2023/10/20 16:57:53;;;;;;;;;;;16.10;99.90;;;;;;4975851;28;19910;-69
2023/10/20 17:00:18;;;;;;;;;;;16.10;99.90;;;;;;4976002;28;19917;-68
2023/10/20 17:02:44;;;;;;;;;;;16.10;99.90;;;;;;4975912;28;19917;-68
2023/10/20 17:05:10;;;;;;;;;;;16.00;99.90;;;;;;4976060;28;20332;-68
2023/10/20 17:07:36;;;;;;;;;;;16.00;99.90;;;;;;4978182;28;19917;-67
2023/10/20 17:10:01;;;;;;;;;;;16.00;99.90;;;;;;4975949;28;19910;-68
2023/10/20 17:12:26;;;;;;;;;;;16.00;99.90;;;;;;4992669;28;20352;-68
2023/10/20 17:14:52;;;;;;;;;;;15.90;99.90;;;;;;4996169;28;20012;-69
2023/10/20 17:17:18;;;;;;;;;;;15.90;99.90;;;;;;4996174;28;20361;-68
2023/10/20 17:19:43;;;;;;;;;;;15.80;99.90;;;;;;4996346;28;19950;-68
2023/10/20 17:22:09;;;;;;;;;;;15.80;99.90;;;;;;4996832;28;20369;-68
2023/10/20 17:24:34;;;;;;;;;;;15.80;99.90;;;;;;4996746;28;19980;-68
2023/10/20 17:27:01;;;;;;;;;;;15.70;99.90;;;;;;4996318;28;20415;-69
2023/10/20 17:29:26;;;;;;;;;;;15.70;99.90;;;;;;4998552;28;19910;-69
2023/10/20 17:31:52;;;;;;;;;;;15.60;99.90;;;;;;4998777;28;19909;-68
2023/10/20 17:34:17;;;;;;;;;;;15.60;99.90;;;;;;4995748;28;19910;-69
2023/10/20 17:36:42;;;;;;;;;;;15.60;99.90;;;;;;4995923;28;19913;-69
2023/10/20 17:39:10;;;;;;;;;;;15.50;99.90;;;;;;4994891;28;19996;-68
2023/10/20 17:41:36;;;;;;;;;;;15.50;99.90;;;;;;4995408;28;19941;-68
2023/10/20 17:44:01;;;;;;;;;;;15.50;99.90;;;;;;4996467;28;20372;-66
2023/10/20 17:46:26;;;;;;;;;;;15.50;99.90;;;;;;4995659;28;20292;-68
2023/10/20 17:48:52;;;;;;;;;;;15.40;99.90;;;;;;4994302;28;19910;-68
2023/10/20 17:51:17;;;;;;;;;;;15.30;99.90;;;;;;4995722;28;19910;-68
2023/10/20 17:53:43;;;;;;;;;;;15.30;99.90;;;;;;4995775;28;19941;-70
2023/10/20 17:56:08;;;;;;;;;;;15.30;99.90;;;;;;4995264;28;19910;-68
2023/10/20 17:58:34;;;;;;;;;;;15.20;99.90;;;;;;4995582;28;19917;-68
2023/10/20 18:01:07;;;;;;;;;;;15.20;99.90;;;;;;4995379;28;19920;-67
2023/10/20 18:03:33;;;;;;;;;;;15.20;99.90;;;;;;4995361;28;19913;-67
2023/10/20 18:06:14;;;;;;;;;;;15.20;99.90;;;;;;4995245;28;20432;-68
2023/10/20 18:08:40;;;;;;;;;;;15.10;99.90;;;;;;4993943;28;19913;-68
2023/10/20 18:11:06;;;;;;;;;;;15.10;99.90;;;;;;4995272;28;20373;-68
2023/10/20 18:13:32;;;;;;;;;;;15.10;99.90;;;;;;4995527;28;19917;-68
2023/10/20 18:15:59;;;;;;;;;;;15.00;99.90;;;;;;4995165;28;20452;-69
2023/10/20 18:18:25;;;;;;;;;;;15.00;99.90;;;;;;4995207;28;19945;-69
2023/10/20 18:20:54;;;;;;;;;;;14.90;99.90;;;;;;4993792;28;19964;-68
2023/10/20 18:23:20;;;;;;;;;;;14.90;99.90;;;;;;4995751;28;19914;-69
2023/10/20 18:25:45;;;;;;;;;;;14.90;99.90;;;;;;4993933;28;20344;-68
2023/10/20 18:28:11;;;;;;;;;;;14.90;99.90;;;;;;4994874;28;20317;-68
2023/10/20 18:30:36;;;;;;;;;;;14.90;99.90;;;;;;4995136;28;20280;-70
2023/10/20 18:33:02;;;;;;;;;;;15.00;99.90;;;;;;4995072;28;19910;-69
2023/10/20 18:35:32;;;;;;;;;;;14.90;99.90;;;;;;4994959;28;19910;-70
2023/10/20 18:37:57;;;;;;;;;;;14.90;99.90;;;;;;4995411;28;19909;-68
2023/10/20 18:40:23;;;;;;;;;;;14.90;99.90;;;;;;4994750;28;19910;-69
2023/10/20 18:42:49;;;;;;;;;;;14.90;99.90;;;;;;4995185;28;20368;-69
2023/10/20 18:45:14;;;;;;;;;;;14.90;99.90;;;;;;4995336;28;19913;-68
2023/10/20 18:47:40;;;;;;;;;;;14.80;99.90;;;;;;4995380;28;19914;-67